• Join FlightAware (Why Join?)
  • Login
  • US Flag 
04:02PM EDT


 

Airport Tracker/Info


-or-


 

Live Flight TrackerFlight Track Log ✈ UAL4180 ✈ 15-Sep-2013 ✈ KRDU - KIAH

Flight Track Log - Related Links

Times and Time Zones

All times are in EDT time to prevent confusion due to time zone crossing. See the UAL4180 flight status page for this flight to view local times or setup timezone preferences in your user account.

Time Position Orientation Groundspeed Altitude Reporting Facility
EDT Latitude Longitude Course Direction KTS MPH feet Rate Location/Type
06:18AM 35.8989 -78.7742 260° West 189 217 1,000  Level Washington Center
06:19AM 35.9392 -78.7525 24° Northeast 200 230 2,500 2,340 Climbing Washington Center
06:20AM 35.9939 -78.7317 17° North 224 258 5,300 2,220 Climbing Washington Center
06:21AM 35.7386 -79.3013 256° West  Level Estimated
06:21AM 36.0169 -78.8044 291° West 215 247 7,700  Level Washington Center
06:22AM 35.7035 -79.4294 256° West  Level Estimated
06:22AM 35.9856 -78.8881 245° Southwest 220 253 9,600  Level Washington Center
06:23AM 35.7066 -79.5646 272° West  Level FlightAware Approximate
06:23AM 35.9539 -78.9764 246° West 253 291 11,500  Level Washington Center
06:24AM 35.6710 -79.6925 260° West  Level Estimated
06:24AM 35.9175 -79.0750 246° West 293 337 13,000  Level Washington Center
06:26AM 35.8561 -79.2425 246° West 330 380 15,000 1,260 Climbing Atlanta Center
06:27AM 35.8294 -79.3619 255° West 350 403 16,300 1,200 Climbing Atlanta Center
06:28AM 35.8133 -79.4858 261° West 362 417 17,500 960 Climbing Atlanta Center
06:29AM 35.7969 -79.6122 261° West 368 423 18,300 1,140 Climbing Atlanta Center
06:30AM 35.7808 -79.7461 262° West 368 423 19,800 1,380 Climbing Atlanta Center
06:31AM 35.7661 -79.8594 261° West 374 430 21,100 1,320 Climbing Atlanta Center
06:32AM 35.7492 -79.9831 260° West 374 430 22,500 1,380 Climbing Atlanta Center
06:33AM 35.7178 -80.1050 252° West 374 430 23,900 1,200 Climbing Atlanta Center
06:34AM 35.6864 -80.2292 253° West 381 438 24,900 1,080 Climbing Atlanta Center
06:35AM 35.6469 -80.3742 252° West 397 457 26,100 960 Climbing Atlanta Center
06:36AM 35.6147 -80.4881 251° West 397 457 26,900 960 Climbing Atlanta Center
06:37AM 35.5808 -80.6172 252° West 397 457 28,100 1,200 Climbing Atlanta Center
06:38AM 35.5447 -80.7461 251° West 402 463 29,300 1,140 Climbing Atlanta Center
06:39AM 35.5106 -80.8750 252° West 407 468 30,400 1,020 Climbing Atlanta Center
06:40AM 35.4744 -81.0092 252° West 412 474 31,400 1,020 Climbing Atlanta Center
06:41AM 35.4300 -81.1561 250° West 412 474 32,500 1,020 Climbing Atlanta Center
06:42AM 35.3933 -81.2950 252° West 417 480 33,500 960 Climbing Atlanta Center
06:43AM 35.3567 -81.4336 252° West 430 495 34,500 960 Climbing Atlanta Center
06:44AM 35.3178 -81.5697 251° West 430 495 35,500 720 Climbing Atlanta Center
06:45AM 35.2831 -81.7031 252° West 419 482 36,000 240 Climbing Atlanta Center
06:46AM 35.2478 -81.8261 251° West 425 489 36,000  Level Atlanta Center
06:47AM 35.2083 -81.9697 251° West 445 512 36,000  Level Atlanta Center
06:48AM 35.1650 -82.1206 251° West 459 528 36,000  Level Atlanta Center
06:49AM 35.1153 -82.2842 250° West 466 536 36,000  Level Atlanta Center
06:50AM 35.0736 -82.4350 251° West 466 536 36,000  Level Atlanta Center
06:51AM 35.0275 -82.5881 250° West 474 545 36,000  Level Atlanta Center
06:52AM 34.9833 -82.7383 250° West 479 551 36,000  Level Atlanta Center
06:53AM 34.9408 -82.8808 250° West 479 551 36,000  Level Atlanta Center
06:54AM 34.8922 -83.0411 250° West 479 551 36,000  Level Atlanta Center
06:55AM 34.8475 -83.1933 250° West 474 545 36,000  Level Atlanta Center
06:56AM 34.8064 -83.3331 250° West 480 552 36,000  Level Atlanta Center
06:57AM 34.7592 -83.4850 249° West 480 552 36,000  Level Atlanta Center
06:58AM 34.7119 -83.6444 250° West 474 545 36,000  Level Atlanta Center
06:59AM 34.6644 -83.7939 249° West 467 537 36,000  Level Atlanta Center
07:00AM 34.6208 -83.9428 250° West 467 537 36,000  Level Atlanta Center
07:01AM 34.5769 -84.0942 251° West 472 543 36,000  Level Atlanta Center
07:02AM 34.5308 -84.2431 249° West 470 541 36,000  Level Atlanta Center
07:03AM 34.4847 -84.3917 249° West 470 541 36,000  Level Atlanta Center
07:04AM 34.4403 -84.5425 250° West 470 541 36,000  Level Atlanta Center
07:05AM 34.3894 -84.6908 247° West 470 541 36,000  Level Atlanta Center
07:06AM 34.3364 -84.8389 247° West 475 547 36,000  Level Atlanta Center
07:07AM 34.2853 -84.9842 247° West 475 547 36,000  Level Atlanta Center
07:08AM 34.2297 -85.1317 246° West 475 547 36,000  Level Atlanta Center
07:09AM 34.1847 -85.2642 248° West 480 552 36,000  Level Atlanta Center
07:10AM 34.1311 -85.4089 246° West 480 552 36,000  Level Atlanta Center
07:11AM 34.0750 -85.5536 245° Southwest 474 545 36,000  Level Atlanta Center
07:12AM 34.0231 -85.6981 247° West 474 545 36,000  Level Atlanta Center
07:13AM 33.9625 -85.8522 245° Southwest 474 545 36,000  Level Atlanta Center
07:14AM 33.9081 -85.9986 246° West 474 545 36,000  Level Atlanta Center
07:15AM 33.8536 -86.1425 246° West 479 551 36,000  Level Atlanta Center
07:16AM 33.7989 -86.2861 245° Southwest 479 551 36,000  Level Atlanta Center
07:17AM 33.7461 -86.4297 246° West 479 551 36,000  Level Atlanta Center
07:18AM 33.6908 -86.5756 246° West 479 551 36,000  Level Atlanta Center
07:19AM 33.6356 -86.7211 246° West 479 551 36,000  Level Atlanta Center
07:20AM 33.5822 -86.8664 246° West 479 551 36,000  Level Atlanta Center
07:21AM 33.5289 -87.0067 246° West 474 545 36,000  Level Atlanta Center
07:22AM 33.4731 -87.1517 245° Southwest 479 551 36,000  Level Atlanta Center
07:23AM 33.4172 -87.2942 245° Southwest 479 551 36,000  Level Atlanta Center
07:25AM 33.2872 -87.6361 246° West 471 542 36,000  Level Memphis Center
07:26AM 33.2253 -87.7744 242° Southwest 471 542 36,000  Level Memphis Center
07:27AM 33.1422 -87.8961 231° Southwest 477 549 36,000  Level Memphis Center
07:28AM 33.0569 -88.0200 231° Southwest 482 555 36,000  Level Memphis Center
07:29AM 32.9800 -88.1433 233° Southwest 482 555 36,000  Level Memphis Center
07:30AM 32.8900 -88.2569 227° Southwest 477 549 36,000  Level Memphis Center
07:31AM 32.7894 -88.3631 222° Southwest 477 549 36,000  Level Memphis Center
07:32AM 32.6972 -88.4786 227° Southwest 482 555 36,000  Level Memphis Center
07:33AM 32.6514 -88.6203 249° West 477 549 36,000  Level Memphis Center
07:34AM 32.6033 -88.7667 249° West 467 537 36,000  Level Memphis Center
07:35AM 32.5550 -88.9081 248° West 467 537 36,000  Level Memphis Center
07:36AM 32.5064 -89.0517 248° West 467 537 36,000  Level Memphis Center
07:37AM 32.4536 -89.1953 246° West 472 543 36,000  Level Memphis Center
07:38AM 32.4047 -89.3361 248° West 472 543 36,000  Level Memphis Center
07:39AM 32.3556 -89.4794 248° West 477 549 36,000  Level Memphis Center
07:40AM 32.3064 -89.6250 248° West 477 549 36,000  Level Memphis Center
07:41AM 32.2531 -89.7653 246° West 477 549 36,000  Level Memphis Center
07:42AM 32.2056 -89.9106 249° West 477 549 36,000  Level Memphis Center
07:43AM 32.1558 -90.0506 247° West 477 549 36,000  Level Memphis Center
07:44AM 32.1039 -90.1931 247° West 477 549 36,000  Level Memphis Center
07:46AM 32.0044 -90.4789 248° West 469 540 36,000  Level Houston Center
07:47AM 31.9542 -90.6194 247° West 468 539 36,000  Level Houston Center
07:48AM 31.9039 -90.7586 247° West 464 534 36,000  Level Houston Center
07:49AM 31.8569 -90.8886 247° West 463 533 36,000  Level Houston Center
07:50AM 31.8033 -91.0356 247° West 461 531 36,000 -300 Level Houston Center
07:51AM 31.7542 -91.1653 246° West 463 533 35,500 -840 Descending Houston Center
07:52AM 31.6906 -91.2967 240° Southwest 465 535 34,400 -780 Descending Houston Center
07:53AM 31.6300 -91.4289 242° Southwest 462 532 34,000 -240 Descending Houston Center
07:54AM 31.5692 -91.5600 241° Southwest 460 529 34,000  Level Houston Center
07:55AM 31.5042 -91.6942 240° Southwest 469 540 34,000  Level Houston Center
07:56AM 31.4281 -91.8553 241° Southwest 472 543 34,000  Level Houston Center
07:57AM 31.3644 -91.9892 241° Southwest 470 541 34,000  Level Houston Center
07:58AM 31.2981 -92.1181 239° Southwest 475 547 34,000  Level Houston Center
07:59AM 31.2344 -92.2519 241° Southwest 474 545 34,000  Level Houston Center
08:00AM 31.1719 -92.3856 241° Southwest 472 543 34,000  Level Houston Center
08:01AM 31.1067 -92.5200 240° Southwest 476 548 34,000  Level Houston Center
08:02AM 31.0431 -92.6531 241° Southwest 471 542 34,000 -1,020 Level Houston Center
08:03AM 30.9731 -92.7983 241° Southwest 467 537 32,000 -2,160 Descending Houston Center
08:04AM 30.9072 -92.9325 240° Southwest 474 545 29,700 -2,220 Descending Houston Center
08:05AM 30.8492 -93.0525 241° Southwest 479 551 27,600 -2,220 Descending Houston Center
08:06AM 30.7831 -93.1875 240° Southwest 482 555 25,300 -1,740 Descending Houston Center
08:07AM 30.7197 -93.3167 240° Southwest 468 539 24,100 -660 Descending Houston Center
08:08AM 30.6564 -93.4453 240° Southwest 463 533 24,000 -60 Descending Houston Center
08:09AM 30.5831 -93.5975 241° Southwest 458 527 24,000 -240 Level Houston Center
08:10AM 30.5206 -93.7228 240° Southwest 456 525 23,600 -1,320 Descending Houston Center
08:11AM 30.4581 -93.8467 240° Southwest 452 520 21,400 -2,280 Descending Houston Center
08:12AM 30.3978 -93.9675 240° Southwest 439 505 19,100 -2,220 Descending Houston Center
08:13AM 30.3383 -94.0861 240° Southwest 429 494 16,900 -2,280 Descending Houston Center
08:14AM 30.3158 -94.1311 240° Southwest 414 476 16,000 -2,280 Descending Houston Center
08:15AM 30.2611 -94.2353 239° Southwest 395 455 14,000 -1,980 Descending Houston Center
08:15AM 30.2292 -94.3011 241° Southwest 379 436 12,800 -1,920 Descending Houston Center
08:16AM 30.2119 -94.3336 238° Southwest 340 391 12,100 -900 Descending Houston Center
08:16AM 30.1844 -94.3967 243° Southwest 344 396 11,900 -120 Descending Houston Center
08:17AM 30.1644 -94.4486 246° West 345 397 12,000 60 Climbing Houston Center
08:17AM 30.1453 -94.5086 250° West 347 399 12,000 -540 Level Houston Center
08:18AM 30.1233 -94.5628 245° Southwest 342 394 11,400 -1,200 Descending Houston Center
08:18AM 30.1089 -94.6044 248° West 336 387 10,800 -1,500 Descending Houston Center
08:19AM 30.0922 -94.6561 250° West 300 345 9,900 -1,800 Descending Houston Center
08:19AM 30.0814 -94.6936 252° West 305 351 9,000 -1,920 Descending Houston Center
08:20AM 30.0653 -94.7467 251° West 299 344 8,000 -1,800 Descending Houston Center
08:20AM 30.0542 -94.7836 251° West 299 344 7,200 -1,800 Descending Houston Center
08:21AM 30.0350 -94.8469 251° West 292 336 6,000 -1,620 Descending Houston Center
08:21AM 30.0292 -94.8706 254° West 292 336 5,600 -1,140 Descending Houston Center
08:22AM 30.0161 -94.9122 250° West 277 319 5,100 -1,140 Descending Houston Center
08:22AM 30.0097 -94.9553 260° West 280 322 4,500 -960 Descending Houston Center
08:23AM 30.0031 -95.0200 263° West 280 322 4,000 -540 Descending Houston Center
08:23AM 30.0028 -95.0428 269° West 276 318 4,000 -480 Level Houston Center
08:24AM 29.9933 -95.1178 262° West 276 318 3,500 -720 Descending Houston Center
08:25AM 29.9939 -95.1300 273° West 276 318 3,300 -1,200 Descending Houston Center
08:25AM 29.9939 -95.1900 270° West 231 266 2,400 -1,440 Descending Houston Center
08:26AM 29.9936 -95.2169 269° West 223 257 1,900 -1,020 Descending Houston Center
08:26AM 29.9931 -95.2506 269° West 170 196 1,400 -840 Descending Houston Center
08:27AM 29.9942 -95.2714 274° West 187 215 1,100 -900 Descending Houston Center
08:27AM 29.9931 -95.2964 267° West 159 183 600 -900 Descending Houston Center
08:28AM 29.9939 -95.3206 272° West 166 191 200 -780 Descending Houston Center